createdAt,value
2023-12-11T00:01:42.644Z,99334.09
2023-12-11T00:04:08.933Z,99327.06
2023-12-11T00:06:35.278Z,99323.53
2023-12-11T00:09:01.467Z,99335.47
2023-12-11T00:11:27.672Z,99343.81
2023-12-11T00:13:53.822Z,99341.28
2023-12-11T00:16:19.974Z,99330.59
2023-12-11T00:18:46.325Z,99344.69
2023-12-11T00:21:12.551Z,99343.75
2023-12-11T00:23:38.701Z,99350.25
2023-12-11T00:26:04.852Z,99336.88
2023-12-11T00:28:31.036Z,99353.69
2023-12-11T00:30:57.267Z,99354.16
2023-12-11T00:33:23.532Z,99352.06
2023-12-11T00:35:49.703Z,99355.69
2023-12-11T00:38:15.868Z,99369.69
2023-12-11T00:40:42.017Z,99350.38
2023-12-11T00:43:08.232Z,99363.47
2023-12-11T00:45:34.468Z,99367.72
2023-12-11T00:48:00.795Z,99354.84
2023-12-11T00:50:27.006Z,99365.03
2023-12-11T00:52:53.167Z,99354.31
2023-12-11T00:55:19.310Z,99356.13
2023-12-11T00:57:45.610Z,99345.03
2023-12-11T01:00:12.223Z,99357.28
2023-12-11T01:02:38.427Z,99355.22
2023-12-11T01:05:04.639Z,99352.34
2023-12-11T01:07:31.158Z,99343.69
2023-12-11T01:09:57.647Z,99348.97
2023-12-11T01:12:23.892Z,99356.94
2023-12-11T01:14:50.056Z,99354.22
2023-12-11T01:17:37.231Z,99361.13
2023-12-11T01:20:02.509Z,99355.41
2023-12-11T01:22:28.764Z,99360.13
2023-12-11T01:24:54.945Z,99355.94
2023-12-11T01:27:21.174Z,99362.16
2023-12-11T01:29:47.386Z,99348.28
2023-12-11T01:32:13.551Z,99363.94
2023-12-11T01:34:39.782Z,99362.44
2023-12-11T01:37:06.068Z,99360.81
2023-12-11T01:39:32.349Z,99354.25
2023-12-11T01:41:58.542Z,99364.69
2023-12-11T01:44:24.776Z,99359.13
2023-12-11T01:46:51.058Z,99357.66
2023-12-11T01:49:17.355Z,99361.91
2023-12-11T01:51:43.551Z,99356.50
2023-12-11T01:54:09.705Z,99341.28
2023-12-11T01:56:35.859Z,99346.44
2023-12-11T01:59:02.052Z,99337.44
2023-12-11T02:01:28.334Z,99310.94
2023-12-11T02:03:54.677Z,99326.13
2023-12-11T02:06:20.946Z,99349.13
2023-12-11T02:08:47.113Z,99353.84
2023-12-11T02:11:13.265Z,99340.81
2023-12-11T02:13:39.419Z,99339.66
2023-12-11T02:16:05.669Z,99339.53
2023-12-11T02:18:32.036Z,99342.66
2023-12-11T02:20:58.242Z,99327.84
2023-12-11T02:23:24.425Z,99327.97
2023-12-11T02:25:50.609Z,99334.66
2023-12-11T02:28:16.842Z,99319.53
2023-12-11T02:30:43.025Z,99319.84
2023-12-11T02:33:09.262Z,99307.78
2023-12-11T02:35:35.444Z,99307.31
2023-12-11T02:38:01.622Z,99308.44
2023-12-11T02:40:27.781Z,99301.94
2023-12-11T02:42:54.022Z,99307.66
2023-12-11T02:45:20.206Z,99296.41
2023-12-11T02:47:46.461Z,99290.16
2023-12-11T02:50:12.682Z,99292.00
2023-12-11T02:52:38.901Z,99286.91
2023-12-11T02:55:05.114Z,99278.94
2023-12-11T02:57:31.481Z,99282.38
2023-12-11T02:59:57.803Z,99278.44
2023-12-11T03:02:23.959Z,99273.88
2023-12-11T03:04:50.140Z,99268.16
2023-12-11T03:07:16.380Z,99263.78
2023-12-11T03:09:42.642Z,99272.09
2023-12-11T03:12:08.838Z,99249.56
2023-12-11T03:14:34.984Z,99248.88
2023-12-11T03:17:01.147Z,99238.25
2023-12-11T03:19:27.440Z,99239.25
2023-12-11T03:21:53.644Z,99233.25
2023-12-11T03:24:19.851Z,99245.97
2023-12-11T03:26:46.002Z,99234.56
2023-12-11T03:29:12.150Z,99233.31
2023-12-11T03:31:38.366Z,99230.19
2023-12-11T03:34:04.586Z,99216.03
2023-12-11T03:36:30.869Z,99222.06
2023-12-11T03:38:57.070Z,99212.88
2023-12-11T03:41:23.261Z,99232.91
2023-12-11T03:43:49.424Z,99225.59
2023-12-11T03:46:15.623Z,99209.75
2023-12-11T03:48:41.931Z,99218.69
2023-12-11T03:51:08.240Z,99220.78
2023-12-11T03:53:34.395Z,99220.97
2023-12-11T03:56:00.557Z,99214.06
2023-12-11T03:58:26.740Z,99210.28
2023-12-11T04:00:53.020Z,99219.22
2023-12-11T04:03:19.270Z,99199.78
2023-12-11T04:05:45.441Z,99203.03
2023-12-11T04:08:11.630Z,99188.69
2023-12-11T04:10:37.790Z,99196.31
2023-12-11T04:13:04.110Z,99201.63
2023-12-11T04:15:30.305Z,99210.72
2023-12-11T04:17:56.545Z,99192.94
2023-12-11T04:20:22.732Z,99204.31
2023-12-11T04:22:48.902Z,99204.72
2023-12-11T04:25:15.091Z,99182.44
2023-12-11T04:27:41.275Z,99188.50
2023-12-11T04:30:07.510Z,99190.34
2023-12-11T04:32:41.329Z,99193.44
2023-12-11T04:35:07.543Z,99208.59
2023-12-11T04:37:33.803Z,99197.50
2023-12-11T04:40:00.067Z,99183.47
2023-12-11T04:42:26.321Z,99177.25
2023-12-11T04:44:52.497Z,99175.72
2023-12-11T04:47:18.694Z,99210.78
2023-12-11T04:49:45.052Z,99173.19
2023-12-11T04:52:11.475Z,99158.31
2023-12-11T04:54:37.780Z,99165.63
2023-12-11T04:57:04.032Z,99172.13
2023-12-11T04:59:30.273Z,99156.00
2023-12-11T05:01:56.959Z,99152.22
2023-12-11T05:04:23.732Z,99156.47
2023-12-11T05:06:50.027Z,99144.09
2023-12-11T05:09:16.270Z,99147.59
2023-12-11T05:11:42.507Z,99131.56
2023-12-11T05:14:08.736Z,99151.28
2023-12-11T05:16:38.105Z,99145.97
2023-12-11T05:19:05.002Z,99150.41
2023-12-11T05:21:31.332Z,99143.78
2023-12-11T05:23:57.535Z,99139.44
2023-12-11T05:26:23.772Z,99145.50
2023-12-11T05:28:50.004Z,99159.00
2023-12-11T05:31:16.345Z,99152.19
2023-12-11T05:33:42.692Z,99154.09
2023-12-11T05:36:09.079Z,99139.59
2023-12-11T05:38:35.254Z,99169.06
2023-12-11T05:41:01.523Z,99160.69
2023-12-11T05:43:27.772Z,99175.06
2023-12-11T05:45:54.014Z,99172.75
2023-12-11T05:48:20.400Z,99137.97
2023-12-11T05:50:46.712Z,99153.81
2023-12-11T05:53:12.876Z,99146.13
2023-12-11T05:55:39.121Z,99145.63
2023-12-11T05:58:05.339Z,99142.72
2023-12-11T06:00:31.725Z,99149.78
2023-12-11T06:02:58.013Z,99163.19
2023-12-11T06:05:24.251Z,99158.94
2023-12-11T06:07:50.465Z,99168.72
2023-12-11T06:10:16.700Z,99165.00
2023-12-11T06:12:43.449Z,99168.41
2023-12-11T06:15:10.667Z,99169.19
2023-12-11T06:17:37.399Z,99155.81
2023-12-11T06:20:03.723Z,99151.91
2023-12-11T06:22:29.917Z,99155.50
2023-12-11T06:24:56.175Z,99178.97
2023-12-11T06:27:22.573Z,99154.59
2023-12-11T06:32:28.932Z,99165.16
2023-12-11T06:34:55.369Z,99181.44
2023-12-11T06:37:21.742Z,99177.78
2023-12-11T06:39:48.184Z,99160.47
2023-12-11T06:42:14.366Z,99160.19
2023-12-11T06:44:40.520Z,99160.19
2023-12-11T06:47:06.703Z,99157.63
2023-12-11T06:49:33.086Z,99160.31
2023-12-11T06:51:59.325Z,99156.44
2023-12-11T06:54:25.511Z,99151.72
2023-12-11T06:56:51.799Z,99151.50
2023-12-11T06:59:18.252Z,99150.97
2023-12-11T07:01:44.560Z,99139.22
2023-12-11T07:04:11.258Z,99141.19
2023-12-11T07:06:37.563Z,99136.91
2023-12-11T07:09:04.061Z,99153.00
2023-12-11T07:11:30.268Z,99145.31
2023-12-11T07:13:56.632Z,99126.25
2023-12-11T07:16:23.203Z,99151.84
2023-12-11T07:18:49.526Z,99142.28
2023-12-11T07:21:15.759Z,99141.81
2023-12-11T07:23:41.981Z,99154.84
2023-12-11T07:26:08.185Z,99165.47
2023-12-11T07:28:34.355Z,99169.66
2023-12-11T07:31:00.580Z,99157.41
2023-12-11T07:33:26.888Z,99156.22
2023-12-11T07:35:53.107Z,99144.75
2023-12-11T07:38:19.333Z,99131.38
2023-12-11T07:40:45.554Z,99144.22
2023-12-11T07:43:11.772Z,99131.50
2023-12-11T07:45:38.462Z,99148.28
2023-12-11T07:48:04.717Z,99138.00
2023-12-11T07:50:30.942Z,99149.44
2023-12-11T07:52:57.119Z,99144.50
2023-12-11T07:55:23.314Z,99145.72
2023-12-11T07:57:49.601Z,99145.44
2023-12-11T08:00:15.802Z,99125.28
2023-12-11T08:02:42.056Z,99146.53
2023-12-11T08:05:08.317Z,99131.91
2023-12-11T08:07:34.859Z,99140.41
2023-12-11T08:10:01.349Z,99147.97
2023-12-11T08:12:27.689Z,99150.94
2023-12-11T08:14:53.909Z,99151.63
2023-12-11T08:17:20.072Z,99157.44
2023-12-11T08:19:46.526Z,99149.13
2023-12-11T08:22:12.868Z,99161.66
2023-12-11T08:24:39.228Z,99148.88
2023-12-11T08:27:05.508Z,99152.28
2023-12-11T08:29:31.731Z,99149.81
2023-12-11T08:31:57.911Z,99175.09
2023-12-11T08:34:24.245Z,99163.16
2023-12-11T08:36:50.532Z,99155.31
2023-12-11T08:39:16.740Z,99168.50
2023-12-11T08:41:42.955Z,99166.41
2023-12-11T08:44:09.151Z,99143.28
2023-12-11T08:46:35.406Z,99179.38
2023-12-11T08:49:01.756Z,99169.97
2023-12-11T08:51:28.023Z,99180.59
2023-12-11T08:53:54.280Z,99166.09
2023-12-11T08:56:20.522Z,99185.03
2023-12-11T08:58:46.736Z,99160.63
2023-12-11T09:01:13.099Z,99179.38
2023-12-11T09:03:39.391Z,99157.16
2023-12-11T09:06:05.648Z,99160.56
2023-12-11T09:08:31.873Z,99152.19
2023-12-11T09:10:58.128Z,99086.88
2023-12-11T09:13:27.392Z,99168.72
2023-12-11T09:15:55.393Z,99166.41
2023-12-11T09:18:21.744Z,99161.16
2023-12-11T09:20:47.976Z,99183.13
2023-12-11T09:23:14.192Z,99190.78
2023-12-11T09:25:40.401Z,99138.56
2023-12-11T09:28:06.659Z,99180.44
2023-12-11T09:30:32.884Z,99188.75
2023-12-11T09:32:59.142Z,99194.38
2023-12-11T09:35:25.555Z,99188.38
2023-12-11T09:37:53.899Z,99204.00
2023-12-11T09:40:20.324Z,99207.09
2023-12-11T09:42:46.701Z,99219.84
2023-12-11T09:45:12.994Z,99198.78
2023-12-11T09:47:39.295Z,99209.19
2023-12-11T09:50:05.610Z,99209.81
2023-12-11T09:52:33.120Z,99213.53
2023-12-11T09:55:00.794Z,99218.97
2023-12-11T09:57:27.014Z,99235.75
2023-12-11T09:59:53.197Z,99245.09
2023-12-11T10:02:19.596Z,99249.63
2023-12-11T10:04:45.955Z,99219.63
2023-12-11T10:07:15.071Z,99256.00
2023-12-11T10:09:41.316Z,99243.34
2023-12-11T10:12:07.638Z,99246.72
2023-12-11T10:14:33.830Z,99265.81
2023-12-11T10:17:00.004Z,99278.81
2023-12-11T10:19:26.395Z,99275.25
2023-12-11T10:21:52.752Z,99274.78
2023-12-11T10:24:18.947Z,99314.97
2023-12-11T10:26:45.127Z,99284.47
2023-12-11T10:29:11.303Z,99292.97
2023-12-11T10:31:37.492Z,99277.94
2023-12-11T10:34:03.859Z,99295.81
2023-12-11T10:36:30.161Z,99306.94
2023-12-11T10:38:56.354Z,99310.00
2023-12-11T10:41:22.567Z,99298.69
2023-12-11T10:44:01.534Z,99294.38
2023-12-11T10:46:35.086Z,99288.97
2023-12-11T10:49:01.542Z,99307.38
2023-12-11T10:51:27.895Z,99288.59
2023-12-11T10:53:54.151Z,99323.34
2023-12-11T10:56:20.485Z,99335.00
2023-12-11T10:58:46.786Z,99343.59
2023-12-11T11:01:13.037Z,99294.66
2023-12-11T11:03:39.395Z,99338.13
2023-12-11T11:06:05.694Z,99348.56
2023-12-11T11:08:32.004Z,99337.34
2023-12-11T11:10:58.239Z,99363.69
2023-12-11T11:13:24.545Z,99349.75
2023-12-11T11:15:50.781Z,99356.66
2023-12-11T11:18:17.086Z,99359.31
2023-12-11T11:20:43.305Z,99366.53
2023-12-11T11:23:09.589Z,99371.94
2023-12-11T11:25:36.489Z,99380.13
2023-12-11T11:28:02.817Z,99392.19
2023-12-11T11:30:29.041Z,99360.84
2023-12-11T11:32:55.319Z,99389.72
2023-12-11T11:35:21.550Z,99386.47
2023-12-11T11:37:47.753Z,99393.28
2023-12-11T11:40:14.072Z,99387.91
2023-12-11T11:42:40.385Z,99400.63
2023-12-11T11:45:06.655Z,99413.66
2023-12-11T11:47:33.201Z,99415.78
2023-12-11T11:49:59.737Z,99428.66
2023-12-11T11:52:26.003Z,99436.34
2023-12-11T11:54:52.251Z,99418.84
2023-12-11T11:57:18.441Z,99416.22
2023-12-11T11:59:44.628Z,99433.53
2023-12-11T12:02:10.806Z,99421.59
2023-12-11T12:04:37.041Z,99432.03
2023-12-11T12:07:03.297Z,99416.38
2023-12-11T12:09:29.499Z,99432.53
2023-12-11T12:11:55.677Z,99443.78
2023-12-11T12:14:23.031Z,99448.16
2023-12-11T12:16:49.404Z,99479.50
2023-12-11T12:19:15.696Z,99437.50
2023-12-11T12:21:41.963Z,99455.00
2023-12-11T12:24:08.171Z,99458.75
2023-12-11T12:26:34.429Z,99466.59
2023-12-11T12:29:00.635Z,99464.00
2023-12-11T12:31:26.872Z,99461.56
2023-12-11T12:33:53.579Z,99473.25
2023-12-11T12:36:19.849Z,99480.44
2023-12-11T12:38:46.027Z,99484.25
2023-12-11T12:41:12.222Z,99481.94
2023-12-11T12:43:38.378Z,99446.09
2023-12-11T12:46:04.680Z,99481.94
2023-12-11T12:48:31.016Z,99480.78
2023-12-11T12:50:57.318Z,99486.50
2023-12-11T12:53:23.511Z,99492.84
2023-12-11T12:55:49.697Z,99518.34
2023-12-11T12:58:17.936Z,99494.03
2023-12-11T13:00:45.109Z,99522.75
2023-12-11T13:03:11.414Z,99517.38
2023-12-11T13:05:37.701Z,99498.91
2023-12-11T13:08:03.917Z,99519.97
2023-12-11T13:10:30.162Z,99498.59
2023-12-11T13:12:56.403Z,99487.66
2023-12-11T13:15:22.676Z,99518.34
2023-12-11T13:17:48.912Z,99532.56
2023-12-11T13:20:15.175Z,99546.09
2023-12-11T13:22:41.469Z,99570.56
2023-12-11T13:25:07.712Z,99568.75
2023-12-11T13:27:33.933Z,99573.50
2023-12-11T13:30:00.232Z,99571.38
2023-12-11T13:32:26.571Z,99565.00
2023-12-11T13:34:52.942Z,99569.25
2023-12-11T13:37:19.205Z,99574.19
2023-12-11T13:39:45.453Z,99575.97
2023-12-11T13:42:11.713Z,99575.97
2023-12-11T13:44:37.903Z,99570.91
2023-12-11T13:47:04.088Z,99575.16
2023-12-11T13:49:30.364Z,99579.38
2023-12-11T13:51:56.684Z,99580.84
2023-12-11T13:54:22.871Z,99588.19
2023-12-11T13:56:49.299Z,99581.00
2023-12-11T13:59:15.503Z,99592.78
2023-12-11T14:01:41.787Z,99610.88
2023-12-11T14:04:08.076Z,99615.47
2023-12-11T14:06:34.304Z,99621.97
2023-12-11T14:09:00.506Z,99617.09
2023-12-11T14:11:26.713Z,99645.97
2023-12-11T14:13:52.877Z,99625.25
2023-12-11T14:16:19.152Z,99639.47
2023-12-11T14:18:45.428Z,99641.22
2023-12-11T14:21:11.682Z,99643.88
2023-12-11T14:23:37.890Z,99646.28
2023-12-11T14:26:04.294Z,99655.56
2023-12-11T14:28:30.551Z,99655.56
2023-12-11T14:30:56.785Z,99652.97
2023-12-11T14:33:23.146Z,99659.00
2023-12-11T14:35:49.484Z,99662.59
2023-12-11T14:38:15.709Z,99674.31
2023-12-11T14:40:41.881Z,99688.03
2023-12-11T14:43:08.150Z,99676.44
2023-12-11T14:45:34.351Z,99682.03
2023-12-11T14:48:00.584Z,99701.25
2023-12-11T14:50:26.839Z,99702.72
2023-12-11T14:52:53.080Z,99714.75
2023-12-11T14:55:25.125Z,99725.19
2023-12-11T14:57:52.387Z,99719.31
2023-12-11T15:00:18.613Z,99723.41
2023-12-11T15:02:44.921Z,99730.56
2023-12-11T15:05:11.201Z,99752.88
2023-12-11T15:07:37.563Z,99737.38
2023-12-11T15:10:03.837Z,99745.84
2023-12-11T15:12:30.101Z,99742.09
2023-12-11T15:14:56.617Z,99760.75
2023-12-11T15:17:22.831Z,99762.03
2023-12-11T15:19:49.175Z,99760.00
2023-12-11T15:22:15.620Z,99759.00
2023-12-11T15:24:41.862Z,99754.59
2023-12-11T15:27:08.226Z,99752.28
2023-12-11T15:29:34.430Z,99759.25
2023-12-11T15:32:00.744Z,99750.47
2023-12-11T15:34:27.105Z,99767.06
2023-12-11T15:36:53.382Z,99770.00
2023-12-11T15:39:19.632Z,99779.94
2023-12-11T15:41:45.836Z,99782.56
2023-12-11T15:44:12.053Z,99789.88
2023-12-11T15:46:38.266Z,99786.97
2023-12-11T15:49:04.724Z,99788.59
2023-12-11T15:51:31.128Z,99795.81
2023-12-11T15:53:57.324Z,99798.56
2023-12-11T15:56:23.529Z,99805.75
2023-12-11T15:58:49.707Z,99810.31
2023-12-11T16:01:16.340Z,99797.31
2023-12-11T16:03:42.775Z,99803.34
2023-12-11T16:06:09.077Z,99816.19
2023-12-11T16:08:35.337Z,99816.31
2023-12-11T16:11:01.540Z,99808.63
2023-12-11T16:13:27.796Z,99818.41
2023-12-11T16:15:54.055Z,99813.66
2023-12-11T16:18:20.424Z,99817.44
2023-12-11T16:20:46.649Z,99832.56
2023-12-11T16:23:12.880Z,99813.47
2023-12-11T16:25:48.036Z,99828.66
2023-12-11T16:28:22.146Z,99830.16
2023-12-11T16:30:48.538Z,99843.50
2023-12-11T16:33:14.881Z,99842.00
2023-12-11T16:35:41.149Z,99842.00
2023-12-11T16:38:07.335Z,99851.44
2023-12-11T16:40:33.599Z,99849.81
2023-12-11T16:42:59.892Z,99858.13
2023-12-11T16:45:26.102Z,99853.56
2023-12-11T16:47:52.334Z,99859.25
2023-12-11T16:50:19.750Z,99858.22
2023-12-11T16:52:45.977Z,99858.84
2023-12-11T16:55:12.182Z,99870.56
2023-12-11T16:57:38.849Z,99865.13
2023-12-11T17:00:05.040Z,99865.13
2023-12-11T17:02:31.425Z,99858.69
2023-12-11T17:04:57.967Z,99871.50
2023-12-11T17:07:24.291Z,99865.84
2023-12-11T17:09:50.547Z,99869.38
2023-12-11T17:12:18.902Z,99876.94
2023-12-11T17:14:45.081Z,99850.81
2023-12-11T17:17:11.288Z,99880.63
2023-12-11T17:19:37.510Z,99881.56
2023-12-11T17:22:03.885Z,99883.31
2023-12-11T17:24:30.110Z,99880.53
2023-12-11T17:26:56.290Z,99878.41
2023-12-11T17:29:22.482Z,99880.03
2023-12-11T17:31:48.678Z,99895.81
2023-12-11T17:34:14.897Z,99889.13
2023-12-11T17:36:41.210Z,99888.22
2023-12-11T17:39:07.415Z,99891.81
2023-12-11T17:41:33.626Z,99903.78
2023-12-11T17:43:59.796Z,99900.72
2023-12-11T17:46:26.000Z,99894.56
2023-12-11T17:48:52.312Z,99911.16
2023-12-11T17:51:18.551Z,99906.34
2023-12-11T17:53:44.719Z,99912.41
2023-12-11T17:56:10.909Z,99906.34
2023-12-11T17:58:37.081Z,99910.13
2023-12-11T18:01:03.398Z,99914.88
2023-12-11T18:03:31.764Z,99920.41
2023-12-11T18:05:58.026Z,99915.66
2023-12-11T18:08:24.277Z,99930.03
2023-12-11T18:10:50.476Z,99932.50
2023-12-11T18:13:16.706Z,99924.69
2023-12-11T18:15:43.112Z,99930.22
2023-12-11T18:18:09.421Z,99942.34
2023-12-11T18:20:35.720Z,99936.22
2023-12-11T18:23:01.922Z,99947.28
2023-12-11T18:25:28.142Z,99945.84
2023-12-11T18:27:54.428Z,99935.59
2023-12-11T18:30:20.629Z,99947.00
2023-12-11T18:32:46.927Z,99949.44
2023-12-11T18:35:13.165Z,99955.69
2023-12-11T18:37:39.399Z,99958.16
2023-12-11T18:40:05.606Z,99949.53
2023-12-11T18:42:31.875Z,99958.34
2023-12-11T18:44:58.078Z,99962.44
2023-12-11T18:47:24.527Z,99969.63
2023-12-11T18:49:50.894Z,99973.94
2023-12-11T18:52:17.155Z,99967.56
2023-12-11T18:54:43.420Z,99977.22
2023-12-11T18:57:09.652Z,99982.75
2023-12-11T18:59:35.843Z,99989.09
2023-12-11T19:02:02.233Z,99981.84
2023-12-11T19:04:28.607Z,99981.63
2023-12-11T19:06:55.011Z,99990.94
2023-12-11T19:09:21.206Z,99989.00
2023-12-11T19:11:47.394Z,99996.47
2023-12-11T19:14:13.581Z,99995.25
2023-12-11T19:16:39.768Z,99997.50
2023-12-11T19:19:06.068Z,100002.44
2023-12-11T19:21:32.358Z,100003.56
2023-12-11T19:23:58.533Z,100001.31
2023-12-11T19:26:24.699Z,99998.53
2023-12-11T19:28:50.883Z,99987.97
2023-12-11T19:31:17.124Z,100002.31
2023-12-11T19:33:43.416Z,99995.75
2023-12-11T19:36:09.728Z,100019.56
2023-12-11T19:38:35.945Z,100025.41
2023-12-11T19:41:02.155Z,100029.00
2023-12-11T19:43:28.377Z,100017.19
2023-12-11T19:45:54.640Z,100027.75
2023-12-11T19:48:21.054Z,100021.72
2023-12-11T19:50:47.383Z,100026.31
2023-12-11T19:53:13.585Z,100025.00
2023-12-11T19:55:39.815Z,100016.88
2023-12-11T19:58:06.048Z,100029.41
2023-12-11T20:00:32.258Z,100023.56
2023-12-11T20:02:58.494Z,100032.38
2023-12-11T20:05:24.711Z,100028.25
2023-12-11T20:07:50.913Z,100034.00
2023-12-11T20:10:17.210Z,100019.53
2023-12-11T20:12:43.404Z,100030.31
2023-12-11T20:15:09.593Z,100038.13
2023-12-11T20:17:36.121Z,100038.13
2023-12-11T20:20:02.549Z,100042.84
2023-12-11T20:22:28.818Z,100036.50
2023-12-11T20:24:55.094Z,100049.72
2023-12-11T20:27:21.280Z,100043.66
2023-12-11T20:29:47.495Z,100040.78
2023-12-11T20:32:13.692Z,100038.34
2023-12-11T20:34:39.917Z,100043.53
2023-12-11T20:37:06.115Z,100046.94
2023-12-11T20:39:32.416Z,100052.50
2023-12-11T20:41:58.586Z,100052.50
2023-12-11T20:44:24.785Z,100050.00
2023-12-11T20:46:50.979Z,100050.44
2023-12-11T20:49:17.329Z,100049.78
2023-12-11T20:51:43.596Z,100062.31
2023-12-11T20:54:09.753Z,100051.84
2023-12-11T20:56:35.962Z,100060.50
2023-12-11T20:59:02.160Z,100056.91
2023-12-11T21:01:28.765Z,100070.44
2023-12-11T21:03:55.166Z,100068.69
2023-12-11T21:06:21.375Z,100069.50
2023-12-11T21:08:47.584Z,100073.09
2023-12-11T21:11:13.783Z,100070.34
2023-12-11T21:13:39.950Z,100078.44
2023-12-11T21:16:06.198Z,100072.91
2023-12-11T21:18:32.474Z,100090.66
2023-12-11T21:20:58.698Z,100082.66
2023-12-11T21:23:24.924Z,100078.13
2023-12-11T21:25:51.202Z,100055.16
2023-12-11T21:28:17.521Z,100087.69
2023-12-11T21:30:43.705Z,100083.88
2023-12-11T21:33:09.918Z,100075.06
2023-12-11T21:35:36.183Z,100091.69
2023-12-11T21:38:02.366Z,100099.19
2023-12-11T21:40:28.583Z,100096.63
2023-12-11T21:42:54.815Z,100101.34
2023-12-11T21:45:21.030Z,100106.69
2023-12-11T21:47:47.330Z,100107.31
2023-12-11T21:50:13.784Z,100112.00
2023-12-11T21:52:40.090Z,100102.34
2023-12-11T21:55:06.330Z,100100.13
2023-12-11T21:57:32.739Z,100105.34
2023-12-11T21:59:59.113Z,100091.59
2023-12-11T22:02:25.286Z,100108.22
2023-12-11T22:04:51.445Z,100112.13
2023-12-11T22:07:17.985Z,100118.25
2023-12-11T22:09:44.292Z,100121.66
2023-12-11T22:12:10.503Z,100127.19
2023-12-11T22:14:36.673Z,100137.66
2023-12-11T22:17:02.861Z,100144.25
2023-12-11T22:19:29.124Z,100152.63
2023-12-11T22:21:55.379Z,100143.50
2023-12-11T22:24:21.565Z,100153.03
2023-12-11T22:26:47.930Z,100133.97
2023-12-11T22:29:14.102Z,100146.91
2023-12-11T22:31:40.281Z,100146.06
2023-12-11T22:34:06.610Z,100153.88
2023-12-11T22:36:32.842Z,100163.81
2023-12-11T22:38:59.025Z,100163.94
2023-12-11T22:41:25.231Z,100167.81
2023-12-11T22:43:51.423Z,100173.94
2023-12-11T22:46:17.628Z,100167.28
2023-12-11T22:48:43.919Z,100184.44
2023-12-11T22:51:10.197Z,100184.97
2023-12-11T22:53:36.387Z,100187.00
2023-12-11T22:56:02.556Z,100184.44
2023-12-11T22:58:28.793Z,100181.69
2023-12-11T23:00:55.058Z,100184.50
2023-12-11T23:03:21.285Z,100172.31
2023-12-11T23:05:47.511Z,100182.88
2023-12-11T23:08:13.712Z,100189.31
2023-12-11T23:10:39.943Z,100183.25
2023-12-11T23:13:06.185Z,100161.34
2023-12-11T23:15:32.389Z,100185.75
2023-12-11T23:17:58.604Z,100186.25
2023-12-11T23:20:24.793Z,100176.00
2023-12-11T23:22:51.006Z,100177.13
2023-12-11T23:25:19.064Z,100184.41
2023-12-11T23:27:46.582Z,100183.38
2023-12-11T23:30:12.778Z,100175.56
2023-12-11T23:32:38.996Z,100188.06
2023-12-11T23:35:05.237Z,100186.44
2023-12-11T23:37:31.865Z,100190.84
2023-12-11T23:39:58.451Z,100185.00
2023-12-11T23:42:24.643Z,100188.91
2023-12-11T23:44:50.855Z,100191.97
2023-12-11T23:47:17.065Z,100191.97
2023-12-11T23:49:43.527Z,100191.97
2023-12-11T23:52:09.809Z,100184.19
2023-12-11T23:54:36.060Z,100181.91
2023-12-11T23:57:02.260Z,100192.69
2023-12-11T23:59:28.473Z,100185.81
